Time;durP1;ratioP1;P1;durP2;ratioP2;P2;SDS_P1;SDS_P2;PMS_P1;PMS_P2;Temp;Humidity;BMP_temperature;BMP_pressure;BME280_temperature;BME280_humidity;BME280_pressure;Samples;Min_cycle;Max_cycle;Signal;HPM_P1;HPM_P2
2023/06/30 00:02:05;;;;;;;6.38;2.95;;;;;;;24.44;48.54;101189.00;4920037;28;20399;-62
2023/06/30 00:04:32;;;;;;;8.18;2.28;;;;;;;24.44;48.77;101186.25;4937481;28;20039;-60
2023/06/30 00:06:58;;;;;;;5.50;2.75;;;;;;;24.43;48.36;101183.75;4959933;28;20131;-61
2023/06/30 00:09:24;;;;;;;8.70;3.03;;;;;;;24.42;48.57;101188.38;4954567;28;20110;-61
2023/06/30 00:11:52;;;;;;;8.63;4.03;;;;;;;24.40;48.35;101187.72;4954729;28;20042;-60
2023/06/30 00:14:18;;;;;;;8.73;2.85;;;;;;;24.41;48.14;101178.44;4954516;29;20395;-62
2023/06/30 00:16:43;;;;;;;9.38;2.80;;;;;;;24.41;48.33;101181.19;4954719;29;20046;-62
2023/06/30 00:19:09;;;;;;;11.43;3.03;;;;;;;24.40;48.22;101190.44;4954582;29;20035;-61
2023/06/30 00:21:34;;;;;;;12.45;3.53;;;;;;;24.39;48.45;101194.25;4954515;29;20047;-61
2023/06/30 00:24:04;;;;;;;19.30;4.07;;;;;;;24.40;48.11;101206.88;4954493;28;20090;-61
2023/06/30 00:26:29;;;;;;;13.05;3.30;;;;;;;24.38;48.54;101203.53;4938602;29;20070;-60
2023/06/30 00:28:55;;;;;;;12.95;3.58;;;;;;;24.37;48.57;101201.00;4922641;29;20495;-61
2023/06/30 00:31:21;;;;;;;12.95;4.38;;;;;;;24.36;48.60;101194.69;4955591;28;20384;-61
2023/06/30 00:33:46;;;;;;;19.13;3.92;;;;;;;24.35;48.36;101198.47;4954627;28;20042;-61
2023/06/30 00:36:11;;;;;;;17.90;4.15;;;;;;;24.35;48.92;101184.78;4954691;29;20055;-60
2023/06/30 00:38:37;;;;;;;13.27;3.33;;;;;;;24.35;48.75;101184.78;4955417;28;20079;-61
2023/06/30 00:41:02;;;;;;;12.50;3.85;;;;;;;24.35;48.20;101182.03;4954225;29;20463;-61
2023/06/30 00:43:27;;;;;;;12.73;4.28;;;;;;;24.36;48.53;101183.72;4955374;28;20032;-61
2023/06/30 00:45:53;;;;;;;12.68;4.18;;;;;;;24.34;48.49;101177.63;4953989;29;20046;-62
2023/06/30 00:48:19;;;;;;;15.93;3.85;;;;;;;24.33;48.59;101184.16;4938041;28;20114;-61
2023/06/30 00:50:44;;;;;;;7.43;3.30;;;;;;;24.32;48.63;101185.19;4937816;29;20035;-60
2023/06/30 00:53:12;;;;;;;10.00;3.20;;;;;;;24.31;48.40;101181.63;4953833;28;20039;-61
2023/06/30 00:55:37;;;;;;;7.63;2.88;;;;;;;24.30;48.62;101185.41;4954011;28;20463;-61
2023/06/30 00:58:03;;;;;;;10.45;3.13;;;;;;;24.30;48.17;101176.34;4949559;28;20115;-61
2023/06/30 01:00:28;;;;;;;8.32;3.00;;;;;;;24.29;48.14;101182.88;4941819;28;20077;-61
2023/06/30 01:03:01;;;;;;;5.88;2.60;;;;;;;24.28;48.32;101184.78;4934708;28;20040;-61
2023/06/30 01:05:59;;;;;;;;;;;;;;;24.31;47.92;101186.25;4942155;29;20032;-61
2023/06/30 01:08:41;;;;;;;7.32;2.25;;;;;;;24.31;47.99;101181.63;4964195;28;19961;-61
2023/06/30 01:11:07;;;;;;;5.15;2.53;;;;;;;24.30;48.68;101184.56;4938693;28;20126;-61
2023/06/30 01:13:33;;;;;;;11.77;3.15;;;;;;;24.28;47.96;101178.47;4953877;28;20043;-61
2023/06/30 01:15:58;;;;;;;4.22;2.40;;;;;;;24.20;48.78;101164.97;4937727;29;20055;-61
2023/06/30 01:18:25;;;;;;;5.95;2.13;;;;;;;24.25;48.69;101176.13;4953726;28;20035;-61
2023/06/30 01:20:51;;;;;;;5.38;2.20;;;;;;;24.24;48.83;101169.81;4955465;28;20035;-61
2023/06/30 01:23:38;;;;;;;9.65;2.78;;;;;;;24.23;48.44;101168.13;4954259;28;20070;-60
2023/06/30 01:26:04;;;;;;;5.03;2.33;;;;;;;24.20;49.02;101157.59;4937726;29;20058;-61
2023/06/30 01:28:33;;;;;;;5.95;2.58;;;;;;;24.19;48.72;101166.88;4953601;28;20047;-61
2023/06/30 01:30:59;;;;;;;6.00;2.80;;;;;;;24.19;48.62;101183.31;4953668;28;20035;-61
2023/06/30 01:33:26;;;;;;;7.05;2.72;;;;;;;24.21;48.50;101180.34;4937488;29;20054;-61
2023/06/30 01:35:52;;;;;;;9.43;3.20;;;;;;;24.17;48.85;101179.09;4954785;28;20448;-61
2023/06/30 01:38:17;;;;;;;7.10;2.78;;;;;;;24.20;48.64;101179.50;4954868;28;20098;-61
2023/06/30 01:40:44;;;;;;;7.82;2.70;;;;;;;24.22;49.04;101176.56;4953568;28;20035;-61
2023/06/30 01:43:10;;;;;;;6.53;3.67;;;;;;;24.21;48.14;101175.72;4953534;28;20115;-61
2023/06/30 01:45:35;;;;;;;4.00;2.38;;;;;;;24.21;48.31;101178.44;4953361;28;20083;-61
2023/06/30 01:48:01;;;;;;;2.58;2.10;;;;;;;24.22;48.72;101182.03;4937341;29;20063;-61
2023/06/30 01:50:31;;;;;;;7.03;2.70;;;;;;;24.20;48.96;101170.47;4953332;28;20039;-61
2023/06/30 01:52:57;;;;;;;18.38;2.55;;;;;;;24.15;48.49;101165.59;4953205;28;20098;-62
2023/06/30 01:55:23;;;;;;;8.02;2.25;;;;;;;24.20;48.94;101173.19;4953472;28;20403;-60
2023/06/30 01:57:48;;;;;;;5.03;2.22;;;;;;;24.20;49.09;101174.00;4953628;28;20541;-60
2023/06/30 02:00:14;;;;;;;6.70;3.40;;;;;;;24.20;48.45;101181.41;4953446;28;20023;-61
2023/06/30 02:02:40;;;;;;;6.90;1.98;;;;;;;24.17;48.31;101176.34;4940095;28;20043;-60
2023/06/30 02:05:06;;;;;;;4.93;2.58;;;;;;;24.16;48.29;101177.38;4956983;28;20023;-61
2023/06/30 02:07:32;;;;;;;7.38;2.42;;;;;;;24.16;48.47;101177.38;4941031;28;20030;-61
2023/06/30 02:09:57;;;;;;;3.13;2.35;;;;;;;24.18;48.38;101183.50;4957094;28;20028;-61
2023/06/30 02:12:22;;;;;;;10.38;2.50;;;;;;;24.16;48.13;101180.13;4940805;28;20023;-60
2023/06/30 02:14:48;;;;;;;7.88;2.08;;;;;;;24.16;48.72;101189.19;4956735;28;20044;-61
2023/06/30 02:17:13;;;;;;;5.85;2.38;;;;;;;24.14;48.59;101184.97;4972910;28;20101;-60
2023/06/30 02:19:39;;;;;;;7.43;2.22;;;;;;;24.12;48.78;101187.09;4972736;28;20042;-60
2023/06/30 02:22:05;;;;;;;5.38;2.22;;;;;;;24.14;48.54;101201.41;4957816;28;20035;-61
2023/06/30 02:24:30;;;;;;;7.38;3.03;;;;;;;24.11;48.57;101196.34;4957969;28;20031;-60
2023/06/30 02:26:55;;;;;;;7.03;2.22;;;;;;;24.12;48.56;101204.34;4940274;28;20083;-60
2023/06/30 02:29:21;;;;;;;3.38;1.73;;;;;;;24.10;48.71;101200.97;4956742;28;20435;-61
2023/06/30 02:31:46;;;;;;;5.82;2.10;;;;;;;24.10;48.59;101205.59;4940679;28;20050;-60
2023/06/30 02:34:12;;;;;;;3.17;2.03;;;;;;;24.12;48.51;101214.47;4940253;28;20027;-60
2023/06/30 02:36:37;;;;;;;5.45;1.90;;;;;;;24.10;48.80;101205.59;4972527;28;20380;-61
2023/06/30 02:39:03;;;;;;;3.53;1.98;;;;;;;24.10;48.69;101213.81;4940592;28;20031;-62
2023/06/30 02:41:28;;;;;;;7.43;2.30;;;;;;;24.07;48.90;101203.25;4940707;28;20479;-61
2023/06/30 02:43:53;;;;;;;5.10;2.35;;;;;;;24.07;48.49;101208.72;4956509;28;20034;-61
2023/06/30 02:46:19;;;;;;;7.47;1.98;;;;;;;24.09;48.16;101212.13;4940198;28;20027;-61
2023/06/30 02:48:44;;;;;;;6.80;2.05;;;;;;;24.07;48.14;101205.97;4940290;28;20484;-61
2023/06/30 02:51:09;;;;;;;6.30;2.47;;;;;;;24.08;48.58;101207.69;4956250;28;20038;-60
2023/06/30 02:53:35;;;;;;;4.82;2.17;;;;;;;24.08;48.84;101213.16;4956206;28;20042;-61
2023/06/30 02:56:00;;;;;;;5.10;2.20;;;;;;;24.05;48.36;101213.56;4940238;28;20031;-60
2023/06/30 02:58:26;;;;;;;3.25;1.60;;;;;;;24.06;47.87;101216.13;4940194;28;20034;-60
2023/06/30 03:00:51;;;;;;;5.43;2.08;;;;;;;24.04;47.88;101214.59;4955996;28;20058;-61
2023/06/30 03:03:17;;;;;;;5.15;1.75;;;;;;;24.04;47.82;101201.75;4956132;28;20023;-61
2023/06/30 03:05:42;;;;;;;6.43;2.30;;;;;;;24.01;48.66;101195.88;4956073;28;20495;-60
2023/06/30 03:08:11;;;;;;;6.07;2.08;;;;;;;24.02;47.76;101200.28;4939911;28;20491;-61
2023/06/30 03:10:36;;;;;;;2.83;1.58;;;;;;;24.00;48.54;101197.78;4940115;28;20484;-60
2023/06/30 03:13:01;;;;;;;5.00;2.25;;;;;;;23.99;48.49;101197.97;4955445;28;20039;-60
2023/06/30 03:15:27;;;;;;;4.55;1.83;;;;;;;23.94;48.30;101195.00;4971868;28;20547;-61
2023/06/30 03:17:55;;;;;;;3.67;2.05;;;;;;;23.93;48.41;101196.06;4971911;28;20062;-60
2023/06/30 03:20:20;;;;;;;5.57;2.03;;;;;;;23.94;48.19;101203.22;4939985;28;20488;-60
2023/06/30 03:22:45;;;;;;;5.18;3.03;;;;;;;23.94;47.86;101205.97;4955614;28;20039;-61
2023/06/30 03:25:11;;;;;;;5.45;1.95;;;;;;;23.94;48.73;101195.00;4956836;28;20035;-62
2023/06/30 03:27:36;;;;;;;7.90;2.28;;;;;;;23.93;48.81;101194.16;4930687;28;20639;-60
2023/06/30 03:30:04;;;;;;;6.05;2.35;;;;;;;23.93;48.55;101199.63;4955643;28;20039;-60
2023/06/30 03:32:30;;;;;;;4.50;1.70;;;;;;;23.91;47.87;101198.16;4955732;28;20031;-61
2023/06/30 03:34:55;;;;;;;4.78;2.17;;;;;;;23.90;48.20;101193.75;4955848;28;20043;-60
2023/06/30 03:37:21;;;;;;;4.65;2.00;;;;;;;23.90;47.84;101193.75;4936264;29;20028;-60
2023/06/30 03:39:46;;;;;;;7.20;2.20;;;;;;;23.87;48.10;101191.44;4940493;28;20035;-61
2023/06/30 03:42:12;;;;;;;7.57;1.90;;;;;;;23.88;47.91;101188.47;4936344;28;20039;-60
2023/06/30 03:44:37;;;;;;;6.22;2.92;;;;;;;23.88;48.65;101190.38;4940703;29;20064;-60
2023/06/30 03:47:03;;;;;;;6.43;2.22;;;;;;;23.88;48.44;101195.84;4939395;29;20507;-61
2023/06/30 03:49:28;;;;;;;8.57;2.20;;;;;;;23.85;47.95;101185.31;4956273;28;20058;-62
2023/06/30 03:51:54;;;;;;;4.70;2.10;;;;;;;23.85;48.01;101185.31;4955275;28;20036;-60
2023/06/30 03:54:19;;;;;;;4.97;1.92;;;;;;;23.86;48.56;101203.41;4939013;29;20050;-61
2023/06/30 03:56:44;;;;;;;10.07;2.22;;;;;;;23.87;47.69;101199.66;4955225;28;20035;-61
2023/06/30 03:59:11;;;;;;;7.70;2.10;;;;;;;23.86;48.13;101195.22;4956652;28;20030;-60
2023/06/30 04:01:39;;;;;;;3.05;1.83;;;;;;;23.86;47.76;101195.22;4955341;28;20049;-60
2023/06/30 04:04:05;;;;;;;6.15;2.08;;;;;;;23.87;48.31;101196.91;4956158;28;20027;-60
2023/06/30 04:06:33;;;;;;;4.50;2.03;;;;;;;23.87;47.99;101194.16;4938142;29;20042;-61
2023/06/30 04:08:58;;;;;;;5.93;1.98;;;;;;;23.89;48.16;101192.06;4970909;28;20533;-61
2023/06/30 04:11:23;;;;;;;5.82;2.08;;;;;;;23.90;47.78;101191.84;4954727;28;20039;-61
2023/06/30 04:13:49;;;;;;;6.75;2.00;;;;;;;23.92;47.74;101203.44;4954666;28;20039;-61
2023/06/30 04:16:14;;;;;;;4.25;2.10;;;;;;;23.92;47.48;101197.13;4956152;28;20193;-61
2023/06/30 04:18:40;;;;;;;7.60;1.95;;;;;;;23.95;47.62;101199.44;4954659;28;20432;-61
2023/06/30 04:21:05;;;;;;;8.98;2.08;;;;;;;23.96;48.10;101198.38;4938373;29;20035;-61
2023/06/30 04:23:30;;;;;;;6.07;2.15;;;;;;;23.95;48.04;101205.78;4970702;28;20038;-61
2023/06/30 04:25:56;;;;;;;3.65;2.30;;;;;;;23.97;47.78;101209.13;4953700;28;20056;-61
2023/06/30 04:28:22;;;;;;;4.03;2.15;;;;;;;23.97;47.65;101213.75;4955735;28;20036;-60
2023/06/30 04:30:47;;;;;;;8.73;2.42;;;;;;;23.98;47.97;101213.53;4954533;28;20499;-62
2023/06/30 04:33:12;;;;;;;12.02;2.42;;;;;;;23.98;47.88;101212.72;4949478;28;20130;-61
2023/06/30 04:35:38;;;;;;;4.05;2.17;;;;;;;23.96;47.66;101192.91;4935142;29;20046;-60
2023/06/30 04:38:03;;;;;;;4.30;2.17;;;;;;;23.96;47.62;101198.38;4935360;29;20036;-60
2023/06/30 04:40:28;;;;;;;8.95;2.63;;;;;;;24.00;48.19;101199.66;4935182;29;20119;-60
2023/06/30 04:42:54;;;;;;;7.82;2.28;;;;;;;24.01;47.75;101199.44;4935107;29;20072;-61
2023/06/30 04:45:19;;;;;;;5.00;2.40;;;;;;;24.01;47.97;101195.88;4934970;29;20399;-60
2023/06/30 04:47:45;;;;;;;4.50;2.20;;;;;;;23.99;47.86;101200.69;4936250;28;20032;-61
2023/06/30 04:50:11;;;;;;;7.75;3.08;;;;;;;23.97;48.11;101189.97;4936029;28;20036;-61
2023/06/30 04:52:36;;;;;;;7.70;2.80;;;;;;;23.94;47.62;101182.19;4934989;29;20032;-61
2023/06/30 04:55:02;;;;;;;5.55;2.65;;;;;;;23.94;47.14;101193.13;4934735;29;20187;-61
2023/06/30 04:57:28;;;;;;;5.90;2.50;;;;;;;23.93;47.56;101187.84;4919351;29;20110;-61
2023/06/30 04:59:54;;;;;;;5.97;2.00;;;;;;;23.96;47.84;101187.44;4934974;29;20046;-60
2023/06/30 05:02:20;;;;;;;6.97;2.35;;;;;;;23.96;47.93;101182.81;4935993;29;20175;-61
2023/06/30 05:04:45;;;;;;;8.60;2.67;;;;;;;24.00;47.32;101184.09;4933734;29;20130;-61
2023/06/30 05:07:11;;;;;;;13.90;2.47;;;;;;;24.08;47.77;101186.63;4934643;28;20046;-61
2023/06/30 05:09:36;;;;;;;4.35;2.55;;;;;;;24.18;47.55;101189.81;4934835;29;20087;-61
2023/06/30 05:12:04;;;;;;;8.10;2.60;;;;;;;24.29;46.70;101188.34;4950768;28;20091;-61
2023/06/30 05:14:29;;;;;;;10.88;2.15;;;;;;;24.35;47.24;101192.97;4934458;29;20034;-61
2023/06/30 05:16:55;;;;;;;8.38;3.28;;;;;;;24.48;46.74;101201.22;4934565;29;20410;-60
2023/06/30 05:19:20;;;;;;;7.43;2.95;;;;;;;24.59;46.24;101199.75;4918585;29;20050;-61
2023/06/30 05:21:45;;;;;;;4.82;2.67;;;;;;;24.71;46.47;101198.03;4934411;29;20404;-61
2023/06/30 05:24:11;;;;;;;3.15;2.25;;;;;;;24.84;46.51;101204.38;4934367;29;20094;-61
2023/06/30 05:26:36;;;;;;;4.50;3.17;;;;;;;24.96;46.05;101201.00;4934078;29;20051;-62
2023/06/30 05:29:02;;;;;;;4.63;2.33;;;;;;;25.09;45.65;101201.81;4935664;28;20118;-61
2023/06/30 05:31:27;;;;;;;5.80;2.95;;;;;;;25.23;45.84;101199.88;4934315;28;20543;-61
2023/06/30 05:33:52;;;;;;;10.30;2.45;;;;;;;25.34;45.23;101189.06;4935347;28;20444;-61
2023/06/30 05:36:19;;;;;;;5.57;2.20;;;;;;;25.49;45.79;101188.00;4936026;29;20049;-62
2023/06/30 05:38:44;;;;;;;5.32;2.20;;;;;;;25.60;45.13;101176.31;4938377;29;20039;-60
2023/06/30 05:41:10;;;;;;;7.90;2.35;;;;;;;25.69;44.95;101181.31;4938060;29;20389;-60
2023/06/30 05:43:35;;;;;;;5.82;2.47;;;;;;;25.81;44.81;101179.56;4922394;29;20111;-61
2023/06/30 05:46:01;;;;;;;6.75;2.22;;;;;;;25.90;44.72;101188.41;4939384;29;20112;-62
2023/06/30 05:48:26;;;;;;;4.55;1.90;;;;;;;26.01;44.50;101191.28;4938314;29;20028;-60
2023/06/30 05:50:51;;;;;;;5.65;2.08;;;;;;;26.15;44.13;101185.72;4938187;29;20048;-61
2023/06/30 05:53:17;;;;;;;4.03;1.67;;;;;;;26.30;43.60;101189.00;4939760;29;20043;-62
2023/06/30 05:55:42;;;;;;;5.50;1.88;;;;;;;26.41;43.66;101191.03;4939375;28;20542;-60
2023/06/30 05:58:07;;;;;;;7.13;1.90;;;;;;;26.58;43.66;101197.63;4906660;29;20099;-63
2023/06/30 06:00:33;;;;;;;4.95;1.88;;;;;;;26.74;42.84;101197.06;4938208;29;20118;-64
2023/06/30 06:02:58;;;;;;;8.48;1.98;;;;;;;26.89;43.11;101210.47;4939019;28;20039;-61
2023/06/30 06:05:24;;;;;;;6.20;1.98;;;;;;;27.01;42.31;101205.91;4922328;29;20119;-62
2023/06/30 06:07:49;;;;;;;8.25;2.63;;;;;;;27.12;42.81;101189.50;4937886;28;20046;-62
2023/06/30 06:10:15;;;;;;;7.18;1.95;;;;;;;27.30;42.31;101204.31;4954236;28;20047;-62
2023/06/30 06:12:40;;;;;;;5.82;2.10;;;;;;;27.43;41.85;101195.94;4922129;29;20043;-61
2023/06/30 06:15:09;;;;;;;2.75;2.00;;;;;;;27.53;41.64;101199.81;4938359;29;20098;-61
2023/06/30 06:17:34;;;;;;;4.20;1.60;;;;;;;27.63;41.44;101199.28;4938086;29;20448;-61
2023/06/30 06:20:00;;;;;;;5.63;1.77;;;;;;;27.75;41.51;101211.16;4938849;29;20495;-63
2023/06/30 06:22:25;;;;;;;3.88;1.65;;;;;;;27.87;40.55;101214.81;4937987;29;20397;-61
2023/06/30 06:24:50;;;;;;;4.47;1.60;;;;;;;28.01;40.09;101215.47;4938304;29;20036;-61
2023/06/30 06:27:16;;;;;;;1.77;1.30;;;;;;;28.15;39.96;101217.84;4940107;28;20533;-62
2023/06/30 06:29:41;;;;;;;2.47;1.73;;;;;;;28.29;40.59;101211.03;4937985;29;20035;-62
2023/06/30 06:32:07;;;;;;;4.85;1.38;;;;;;;28.43;39.69;101216.34;4937496;29;20496;-62
2023/06/30 06:34:33;;;;;;;5.30;1.55;;;;;;;28.57;39.58;101209.53;4937459;29;20044;-61
2023/06/30 06:37:00;;;;;;;4.90;1.42;;;;;;;28.71;38.83;101213.78;4938227;29;20496;-62
2023/06/30 06:39:25;;;;;;;2.30;1.33;;;;;;;28.81;38.90;101211.28;4937655;29;20114;-61
2023/06/30 06:41:51;;;;;;;2.42;1.10;;;;;;;28.93;38.75;101220.38;4937369;29;20461;-62
2023/06/30 06:44:16;;;;;;;9.13;1.25;;;;;;;29.03;38.75;101217.03;4937210;29;20071;-62
2023/06/30 06:46:43;;;;;;;6.13;1.60;;;;;;;29.12;38.40;101210.88;4937184;29;20413;-61
2023/06/30 06:49:08;;;;;;;6.82;1.60;;;;;;;29.23;37.76;101210.06;4920443;29;20044;-61
2023/06/30 06:51:33;;;;;;;2.65;1.10;;;;;;;29.34;37.72;101211.94;4936873;29;20028;-61
2023/06/30 06:53:59;;;;;;;7.68;1.30;;;;;;;29.44;37.66;101212.19;4938269;28;20487;-61
2023/06/30 06:56:24;;;;;;;3.92;1.48;;;;;;;29.55;37.28;101212.38;4953048;28;20040;-62
2023/06/30 06:58:50;;;;;;;6.53;2.05;;;;;;;29.64;36.71;101203.50;4937107;29;20451;-61
2023/06/30 07:01:15;;;;;;;4.35;1.50;;;;;;;29.80;36.41;101204.66;4937982;28;20113;-61
2023/06/30 07:03:40;;;;;;;3.42;1.40;;;;;;;29.96;36.57;101209.38;4936740;29;20039;-61
2023/06/30 07:06:09;;;;;;;2.47;1.27;;;;;;;30.11;36.55;101206.91;4936769;29;20063;-61
2023/06/30 07:08:38;;;;;;;6.93;1.33;;;;;;;30.25;35.96;101213.81;4936722;29;20078;-61
2023/06/30 07:11:06;;;;;;;4.00;1.58;;;;;;;30.42;35.64;101224.91;4936582;29;20036;-61
2023/06/30 07:13:31;;;;;;;5.75;1.70;;;;;;;30.51;35.94;101217.88;4936818;28;20064;-61
2023/06/30 07:15:56;;;;;;;7.75;1.25;;;;;;;30.66;35.58;101220.88;4952677;28;20066;-61
2023/06/30 07:18:22;;;;;;;7.35;1.40;;;;;;;30.81;35.37;101212.84;4937756;28;20152;-63
2023/06/30 07:20:48;;;;;;;4.45;1.38;;;;;;;30.91;34.96;101212.13;4952649;28;20431;-61
2023/06/30 07:23:14;;;;;;;2.97;0.93;;;;;;;31.11;35.14;101220.78;4936256;29;20095;-61
2023/06/30 07:25:39;;;;;;;3.80;1.25;;;;;;;31.26;34.40;101226.53;4936377;29;20464;-62
2023/06/30 07:28:05;;;;;;;1.42;0.80;;;;;;;31.41;33.92;101229.50;4936421;29;20124;-62
2023/06/30 07:30:30;;;;;;;4.25;1.10;;;;;;;31.54;33.48;101229.16;4952239;28;20040;-62
2023/06/30 07:32:55;;;;;;;1.30;0.60;;;;;;;31.70;33.82;101239.34;4936489;29;20120;-63
2023/06/30 07:35:22;;;;;;;4.47;1.25;;;;;;;31.85;33.65;101224.00;4952008;28;20119;-62
2023/06/30 07:37:49;;;;;;;2.15;1.00;;;;;;;32.00;32.89;101226.91;4936202;29;20454;-62
2023/06/30 07:40:17;;;;;;;6.28;1.25;;;;;;;32.12;32.80;101235.94;4935939;29;20039;-62
2023/06/30 07:42:43;;;;;;;1.60;1.10;;;;;;;32.28;32.85;101235.00;4935897;29;20047;-63
2023/06/30 07:45:13;;;;;;;4.00;1.20;;;;;;;32.43;32.31;101228.75;4952064;28;20031;-63
2023/06/30 07:47:45;;;;;;;4.30;1.20;;;;;;;32.52;32.92;101230.81;4929426;29;20502;-63
2023/06/30 07:50:12;;;;;;;2.58;1.58;;;;;;;32.68;32.42;101231.78;4939939;29;20040;-60
2023/06/30 07:52:46;;;;;;;1.65;1.00;;;;;;;32.83;32.37;101229.97;4939028;29;20168;-61
2023/06/30 07:55:18;;;;;;;4.38;1.17;;;;;;;33.01;32.20;101227.84;4956281;28;20118;-62
2023/06/30 07:57:45;;;;;;;3.03;1.38;;;;;;;33.15;31.32;101234.66;4955101;29;20111;-62
2023/06/30 08:00:18;;;;;;;2.63;0.85;;;;;;;33.26;30.98;101231.66;4939079;29;20491;-62
2023/06/30 08:02:43;;;;;;;7.50;0.90;;;;;;;33.42;30.48;101240.09;4954373;28;20074;-61
2023/06/30 08:05:09;;;;;;;1.85;0.98;;;;;;;33.54;30.62;101238.75;4938877;28;20027;-62
2023/06/30 08:07:35;;;;;;;3.65;0.90;;;;;;;33.65;30.37;101240.50;4938447;28;20065;-65
2023/06/30 08:10:00;;;;;;;2.20;1.15;;;;;;;33.75;30.98;101234.16;4954364;28;20023;-62
2023/06/30 08:12:25;;;;;;;3.50;1.50;;;;;;;33.84;30.19;101233.31;4954792;28;20127;-61
2023/06/30 08:14:52;;;;;;;1.67;0.88;;;;;;;33.94;29.83;101226.97;4938522;28;20058;-61
2023/06/30 08:17:17;;;;;;;1.85;0.90;;;;;;;34.06;29.23;101219.19;4938564;28;20027;-62
2023/06/30 08:19:43;;;;;;;2.88;0.85;;;;;;;34.21;29.88;101223.97;4954443;28;20036;-61
2023/06/30 08:22:16;;;;;;;1.55;0.65;;;;;;;34.35;29.99;101219.56;4955552;28;20031;-62
2023/06/30 08:24:42;;;;;;;2.33;0.80;;;;;;;34.48;29.71;101221.78;4938884;28;20407;-62
2023/06/30 08:27:08;;;;;;;1.50;0.65;;;;;;;34.58;29.10;101210.69;4954409;28;20054;-61
2023/06/30 08:29:33;;;;;;;4.15;1.00;;;;;;;34.70;28.20;101208.47;4955434;28;21449;-62
2023/06/30 08:31:58;;;;;;;6.28;0.90;;;;;;;34.80;28.18;101208.44;4954324;28;20467;-61
2023/06/30 08:34:25;;;;;;;4.38;0.80;;;;;;;34.92;27.85;101203.41;4954117;28;20039;-62
2023/06/30 08:36:53;;;;;;;6.90;1.27;;;;;;;35.03;28.13;101210.63;4954441;28;20094;-61
2023/06/30 08:39:18;;;;;;;1.95;0.60;;;;;;;35.11;28.19;101208.41;4955446;28;20050;-61
2023/06/30 08:41:44;;;;;;;1.42;0.80;;;;;;;35.09;27.57;101212.28;4954030;29;20077;-62
2023/06/30 08:44:09;;;;;;;0.57;0.40;;;;;;;35.23;28.09;101212.56;4954409;29;20384;-61
2023/06/30 08:46:35;;;;;;;1.15;0.40;;;;;;;35.33;27.04;101211.69;4954297;29;20432;-62
2023/06/30 08:49:00;;;;;;;6.05;0.95;;;;;;;35.38;27.09;101203.28;4954407;28;20531;-62
2023/06/30 08:51:26;;;;;;;2.67;0.70;;;;;;;35.52;27.56;101207.13;4937949;29;20518;-62
2023/06/30 08:53:51;;;;;;;4.72;0.98;;;;;;;35.43;27.17;101192.97;4953919;29;20035;-62
2023/06/30 08:56:17;;;;;;;4.82;0.77;;;;;;;35.38;26.32;101192.97;4954023;29;20035;-62
2023/06/30 08:58:43;;;;;;;2.25;0.70;;;;;;;35.59;27.11;101188.19;4953688;29;20067;-62
2023/06/30 09:01:08;;;;;;;2.35;0.88;;;;;;;35.64;26.56;101193.75;4953682;29;20031;-62
2023/06/30 09:03:35;;;;;;;3.45;0.90;;;;;;;35.55;26.55;101192.66;4953707;28;20074;-63
2023/06/30 09:06:00;;;;;;;2.75;0.70;;;;;;;35.54;26.85;101196.56;4953819;29;20032;-63
2023/06/30 09:08:47;;;;;;;2.65;0.80;;;;;;;35.67;26.97;101209.91;4937748;29;20050;-62
2023/06/30 09:11:15;;;;;;;3.22;0.95;;;;;;;35.84;26.27;101190.00;4937615;29;20031;-63
2023/06/30 09:13:41;;;;;;;4.93;1.15;;;;;;;35.89;26.83;101193.59;4953626;28;20035;-63
2023/06/30 09:16:10;;;;;;;4.13;1.00;;;;;;;35.92;26.64;101190.22;4937462;29;20111;-63
2023/06/30 09:18:35;;;;;;;2.63;1.27;;;;;;;36.02;26.10;101181.81;4969083;28;20043;-63
2023/06/30 09:21:04;;;;;;;1.33;0.55;;;;;;;36.10;25.97;101177.56;4953563;28;20039;-64
2023/06/30 09:23:29;;;;;;;6.75;0.70;;;;;;;36.04;25.63;101182.34;4953416;29;20055;-62
2023/06/30 09:25:54;;;;;;;2.00;0.75;;;;;;;36.14;25.44;101156.34;4953404;29;20459;-63
2023/06/30 09:28:20;;;;;;;2.22;0.70;;;;;;;36.20;25.48;101177.50;4954729;28;20081;-64
2023/06/30 09:30:46;;;;;;;3.95;0.80;;;;;;;36.18;25.71;101166.63;4953530;29;20050;-63
2023/06/30 09:33:16;;;;;;;0.85;0.70;;;;;;;36.19;25.17;101168.28;4938975;29;20118;-62
2023/06/30 09:35:44;;;;;;;2.95;0.70;;;;;;;36.19;25.77;101165.50;4931101;29;20089;-62
2023/06/30 09:38:14;;;;;;;1.85;1.02;;;;;;;36.25;25.22;101169.09;4937610;29;20111;-62
2023/06/30 09:40:43;;;;;;;1.67;0.65;;;;;;;36.26;25.58;101159.59;4921536;29;20383;-63
2023/06/30 09:43:15;;;;;;;3.70;0.80;;;;;;;36.35;25.23;101173.78;4937060;29;20082;-63
2023/06/30 09:45:42;;;;;;;2.10;0.80;;;;;;;36.52;25.06;101174.19;4953217;29;20114;-62
2023/06/30 09:48:10;;;;;;;1.20;0.73;;;;;;;36.63;24.99;101165.41;4953351;28;20035;-63
2023/06/30 09:50:36;;;;;;;0.40;0.40;;;;;;;36.60;24.58;101166.00;4954843;28;20031;-62
2023/06/30 09:53:01;;;;;;;0.82;0.52;;;;;;;36.75;24.68;101162.22;4969398;28;20575;-64
2023/06/30 09:55:26;;;;;;;4.13;0.85;;;;;;;36.82;24.47;101162.72;4953245;29;20474;-64
2023/06/30 09:57:53;;;;;;;2.65;0.90;;;;;;;37.08;24.64;101169.72;4937076;29;20035;-63
2023/06/30 10:00:20;;;;;;;1.80;0.65;;;;;;;37.26;24.00;101163.38;4953048;29;20039;-63
2023/06/30 10:02:56;;;;;;;3.47;0.65;;;;;;;37.55;23.80;101165.25;4937122;29;20035;-63
2023/06/30 10:05:22;;;;;;;6.22;5.75;;;;;;;37.96;23.90;101157.97;4954433;28;20123;-62
2023/06/30 10:07:47;;;;;;;28.17;26.77;;;;;;;38.60;23.28;101159.97;4954322;28;20127;-63
2023/06/30 10:10:12;;;;;;;44.80;42.78;;;;;;;39.24;22.27;101155.41;4937224;29;20123;-62
2023/06/30 10:12:39;;;;;;;3.20;0.90;;;;;;;39.93;21.59;101148.53;4952869;28;20046;-63
2023/06/30 10:15:06;;;;;;;4.28;1.85;;;;;;;40.61;21.16;101143.47;4937073;29;20039;-63
2023/06/30 10:17:32;;;;;;;1.75;0.93;;;;;;;41.19;20.90;101153.66;4953462;28;20515;-63
2023/06/30 10:20:00;;;;;;;2.55;1.30;;;;;;;41.16;20.98;101148.69;4937484;29;20038;-63
2023/06/30 10:22:25;;;;;;;1.80;0.80;;;;;;;40.78;22.01;101150.31;4952924;28;20094;-63
2023/06/30 10:24:50;;;;;;;2.10;0.95;;;;;;;40.54;21.48;101154.31;4956541;28;20126;-63
2023/06/30 10:27:18;;;;;;;2.90;1.50;;;;;;;40.33;21.89;101158.81;4956520;29;20043;-63
2023/06/30 10:29:45;;;;;;;2.05;1.10;;;;;;;40.01;22.06;101153.38;4958133;28;20118;-63
2023/06/30 10:32:11;;;;;;;2.75;1.30;;;;;;;40.05;22.26;101151.63;4956730;29;20051;-63
2023/06/30 10:34:37;;;;;;;5.20;1.20;;;;;;;40.18;21.33;101150.75;4940616;29;20440;-63
2023/06/30 10:37:03;;;;;;;3.13;1.20;;;;;;;40.00;21.45;101143.31;4956443;29;20042;-63
2023/06/30 10:39:29;;;;;;;3.05;1.10;;;;;;;39.87;21.84;101138.59;4924775;29;20047;-63
2023/06/30 10:41:56;;;;;;;4.30;1.27;;;;;;;39.72;21.83;101148.22;4956522;29;20038;-62
2023/06/30 10:44:35;;;;;;;1.58;0.88;;;;;;;39.59;22.13;101135.81;4957694;28;20038;-63
2023/06/30 10:47:01;;;;;;;14.52;1.40;;;;;;;39.70;21.94;101135.63;4955965;28;20076;-62
2023/06/30 10:49:29;;;;;;;3.05;1.35;;;;;;;40.01;21.73;101134.56;4939979;28;20651;-62
2023/06/30 10:51:56;;;;;;;2.85;1.88;;;;;;;40.29;21.06;101132.50;4956071;28;20475;-63
2023/06/30 10:54:41;;;;;;;1.67;1.58;;;;;;;40.58;21.39;101132.03;4955971;28;20054;-62
2023/06/30 10:57:11;;;;;;;3.35;1.50;;;;;;;40.74;21.53;101138.06;4956051;29;20768;-62
2023/06/30 10:59:38;;;;;;;2.58;1.00;;;;;;;40.92;21.29;101120.16;4956042;29;20483;-62
2023/06/30 11:02:18;;;;;;;2.50;1.75;;;;;;;40.80;21.13;101119.91;4957202;28;20042;-62
2023/06/30 11:04:52;;;;;;;1.58;1.05;;;;;;;40.44;21.30;101126.47;4957046;28;20051;-62
2023/06/30 11:07:24;;;;;;;3.00;1.10;;;;;;;40.62;21.22;101119.03;4953632;28;20106;-62
2023/06/30 11:09:49;;;;;;;1.85;0.95;;;;;;;40.80;20.93;101117.09;4955704;28;20035;-62
2023/06/30 11:12:19;;;;;;;1.23;0.73;;;;;;;40.55;21.25;101113.00;4956974;28;20142;-63
2023/06/30 11:14:57;;;;;;;1.80;1.33;;;;;;;39.79;22.01;101114.91;4939441;29;20027;-64
2023/06/30 11:17:23;;;;;;;0.95;0.70;;;;;;;39.18;21.72;101115.41;4955717;29;20459;-63
2023/06/30 11:20:11;;;;;;;4.88;1.13;;;;;;;39.10;22.11;101116.13;4955680;29;20062;-64
2023/06/30 11:22:37;;;;;;;5.57;1.23;;;;;;;39.59;21.95;101121.78;4936081;29;20048;-62